Flight Track Log - Related Links

Times and Time Zones

All times are in EDT time to prevent confusion due to time zone crossing. See the LOF3416 flight status page for this flight to view local times or setup timezone preferences in your user account.

Time Position Orientation Groundspeed Altitude Reporting Facility
EDT Latitude Longitude Course Direction KTS MPH feet Rate Location/Type
Fri 10:45:12 PM 38.9333 -77.5333 288° West 175 201 2,800  Level Potomac TRACON
Fri 10:46:12 PM 38.9167 -77.5833 247° West 191 220 5,300 1,950 Climbing Potomac TRACON
Fri 10:47:00 PM 38.8829 -77.8027 260° West  Level FlightAware Approximate
Fri 10:47:12 PM 38.8833 -77.6500 237° Southwest 236 272 6,700  Level Potomac TRACON
Fri 10:48:00 PM 38.8691 -77.9239 293° West  Level FlightAware Approximate
Fri 10:48:06 PM 38.8167 -77.6500 180° South 237 273 7,100  Level Potomac TRACON
Fri 10:49:00 PM 38.9018 -78.0403 288° West  Level FlightAware Approximate
Fri 10:49:12 PM 38.8333 -77.7000 293° West 265 305 9,100  Level Potomac TRACON
Fri 10:50:00 PM 38.9312 -78.1582 288° West  Level FlightAware Approximate
Fri 10:50:20 PM 38.9156 -77.7125 353° North 291 335 12,000  Level Washington Center
Fri 10:51:20 PM 38.9967 -77.7231 354° North 291 335 13,500 1,150 Climbing Washington Center
Fri 10:52:20 PM 38.9997 -77.7925 273° West 177 204 14,300 1,050 Climbing Washington Center
Fri 10:53:20 PM 38.9894 -77.8936 263° West 208 239 15,600 1,200 Climbing Washington Center
Fri 10:54:20 PM 38.9789 -77.9975 263° West 256 295 16,700 1,150 Climbing Washington Center
Fri 10:55:20 PM 38.9706 -78.1042 264° West 290 334 17,900 1,200 Climbing Washington Center
Fri 10:56:20 PM 38.9622 -78.2078 264° West 296 341 19,100 1,050 Climbing Washington Center
Fri 10:57:20 PM 38.9639 -78.3119 271° West 296 341 20,000 850 Climbing Washington Center
Fri 10:58:20 PM 38.9675 -78.4269 272° West 304 350 20,800 800 Climbing Washington Center
Fri 10:59:20 PM 38.9711 -78.5367 272° West 310 357 21,600 800 Climbing Washington Center
Fri 11:00:20 PM 38.9744 -78.6542 272° West 316 364 22,400 900 Climbing Washington Center
Fri 11:01:20 PM 38.9778 -78.7719 272° West 321 369 23,400 1,000 Climbing Washington Center
Fri 11:02:20 PM 38.9808 -78.8894 272° West 332 382 24,400 1,000 Climbing Washington Center
Fri 11:03:20 PM 38.9836 -79.0097 272° West 332 382 25,400 800 Climbing Washington Center
Fri 11:04:20 PM 38.9867 -79.1275 272° West 332 382 26,000 300 Climbing Washington Center
Fri 11:05:20 PM 38.9914 -79.2478 273° West 337 388 26,000 300 Level Washington Center
Fri 11:06:20 PM 38.9942 -79.3603 272° West 332 382 26,600 900 Climbing Washington Center
Fri 11:07:20 PM 38.9967 -79.4725 272° West 327 376 27,800 700 Climbing Washington Center
Fri 11:08:20 PM 38.9992 -79.5903 272° West 332 382 28,000 550 Climbing Washington Center
Fri 11:09:20 PM 38.9994 -79.7025 270° West 346 398 28,900 500 Climbing Washington Center
Fri 11:10:20 PM 39.0014 -79.8253 271° West 351 404 29,000 50 Climbing Washington Center
Fri 11:11:20 PM 39.0036 -79.9378 271° West 340 391 29,000  Level Washington Center
Fri 11:12:20 PM 39.0058 -80.0528 271° West 311 358 29,000  Level Washington Center
Fri 11:13:25 PM 39.0042 -80.1458 269° West 288 331 29,000 333 Level Indianapolis Center
Fri 11:14:26 PM 39.0072 -80.2619 272° West 318 366 29,700 492 Climbing Indianapolis Center
Fri 11:15:27 PM 39.0083 -80.3825 271° West 337 388 30,000 148 Climbing Indianapolis Center
Fri 11:16:28 PM 39.0231 -80.5108 278° West 362 417 30,000  Level Indianapolis Center
Fri 11:17:29 PM 39.0392 -80.6256 280° West 333 383 30,000  Level Indianapolis Center
Fri 11:18:30 PM 39.0581 -80.7594 280° West 319 367 30,000  Level Indianapolis Center
Fri 11:19:31 PM 39.0722 -80.8700 279° West 315 362 30,000  Level Indianapolis Center
Fri 11:20:32 PM 39.0886 -80.9822 281° West 317 365 30,000  Level Indianapolis Center
Fri 11:21:33 PM 39.1047 -81.1053 280° West 345 397 30,000  Level Indianapolis Center
Fri 11:22:34 PM 39.1225 -81.2331 280° West 363 418 30,000  Level Indianapolis Center
Fri 11:23:35 PM 39.1400 -81.3653 280° West 375 432 30,000  Level Indianapolis Center
Fri 11:24:36 PM 39.1578 -81.4992 280° West 381 438 30,000  Level Indianapolis Center
Fri 11:25:37 PM 39.1753 -81.6325 280° West 381 438 30,000  Level Indianapolis Center
Fri 11:26:38 PM 39.1914 -81.7614 279° West 368 423 30,000 -443 Level Indianapolis Center
Fri 11:27:39 PM 39.2072 -81.8864 279° West 357 411 29,100 -1,180 Descending Indianapolis Center
Fri 11:28:40 PM 39.2231 -82.0100 279° West 352 405 27,600 -1,623 Descending Indianapolis Center
Fri 11:29:41 PM 39.2414 -82.1547 279° West 340 391 25,800 -1,623 Descending Indianapolis Center
Fri 11:30:42 PM 39.2564 -82.2703 280° West 329 379 24,300 -1,475 Descending Indianapolis Center
Fri 11:31:43 PM 39.2708 -82.3917 279° West 341 392 22,800 -1,525 Descending Indianapolis Center
Fri 11:32:44 PM 39.2867 -82.5153 279° West 352 405 21,200 -1,426 Descending Indianapolis Center
Fri 11:33:45 PM 39.3008 -82.6372 279° West 341 392 19,900 -1,279 Descending Indianapolis Center
Fri 11:34:46 PM 39.3150 -82.7558 279° West 334 384 18,600 -1,279 Descending Indianapolis Center
Fri 11:35:47 PM 39.3294 -82.8736 279° West 328 377 17,300 -1,328 Descending Indianapolis Center
Fri 11:36:48 PM 39.3419 -82.9894 278° West 323 372 15,900 -1,180 Descending Indianapolis Center
Fri 11:37:49 PM 39.3561 -83.1058 279° West 325 374 14,900 -984 Descending Indianapolis Center
Fri 11:38:50 PM 39.3689 -83.2233 278° West 327 376 13,900 -984 Descending Indianapolis Center
Fri 11:39:51 PM 39.3794 -83.3350 277° West 312 359 12,900 -958 Descending Indianapolis Center
Fri 11:40:49 PM 39.3869 -83.4503 275° West 307 353 12,000 -836 Descending Indianapolis Center
Fri 11:41:53 PM 39.4081 -83.5508 285° West 311 358 11,200 -864 Descending Indianapolis Center
Fri 11:42:54 PM 39.4906 -83.6064 333° Northwest 330 380 10,200 -787 Descending Indianapolis Center
Fri 11:43:55 PM 39.5619 -83.6525 334° Northwest 292 336 9,600 -1,033 Descending Indianapolis Center
Fri 11:44:56 PM 39.6228 -83.6922 333° Northwest 250 288 8,100 -1,525 Descending Indianapolis Center
Fri 11:45:57 PM 39.6806 -83.7317 332° Northwest 239 275 6,500 -1,033 Descending Indianapolis Center
Fri 11:46:58 PM 39.7394 -83.7644 337° Northwest 232 267 6,000 -246 Descending Indianapolis Center
Fri 11:47:59 PM 39.8081 -83.7867 346° North 216 249 6,000 -295 Level Indianapolis Center
Fri 11:49:00 PM 39.8633 -83.8047 346° North 196 226 5,400 -984 Descending Indianapolis Center
Fri 11:50:01 PM 39.9136 -83.8200 347° North 208 239 4,000 -694 Descending Indianapolis Center
Fri 11:51:01 PM 39.9664 -83.8531 334° Northwest 181 208 4,000 -275 Level Indianapolis Center
Fri 11:51:50 PM 39.9867 -83.8911 305° West 157 181 3,500 -641 Descending Indianapolis Center
Fri 11:52:44 PM 39.9947 -83.9519 280° West 193 222 2,900 -649 Descending Indianapolis Center
Fri 11:53:04 PM 39.9944 -83.9653 268° West 183 211 2,700 -269 Descending Indianapolis Center
Fri 11:53:51 PM 39.9872 -84.0192 260° West 167 192 2,600 -56 Descending Indianapolis Center
Fri 11:54:52 PM 39.9706 -84.0742 248° West 165 190 2,600  Level Indianapolis Center

Login

Don't have an account? Register now (free) for customized features, flight alerts, and more!